Time;durP1;ratioP1;P1;durP2;ratioP2;P2;SDS_P1;SDS_P2;PMS_P1;PMS_P2;Temp;Humidity;BMP_temperature;BMP_pressure;BME280_temperature;BME280_humidity;BME280_pressure;Samples;Min_cycle;Max_cycle;Signal;HPM_P1;HPM_P2
2021/03/01 00:00:12;;;;;;;28.25;13.10;;;;;;;-147.27;100.00;65176.34;4918064;29;20040;-58
2021/03/01 00:02:37;;;;;;;26.55;12.93;;;;;;;-147.27;100.00;65176.34;4918549;29;20116;-58
2021/03/01 00:05:04;;;;;;;28.90;14.18;;;;;;;-147.27;100.00;65176.34;4918091;29;20048;-58
2021/03/01 00:07:30;;;;;;;26.52;13.52;;;;;;;-147.27;100.00;65176.34;4917282;29;20096;-58
2021/03/01 00:09:56;;;;;;;27.45;13.52;;;;;;;-147.27;100.00;65176.34;4917857;29;20477;-60
2021/03/01 00:12:21;;;;;;;29.97;14.53;;;;;;;-147.27;100.00;65176.34;4918493;29;20059;-56
2021/03/01 00:14:47;;;;;;;29.33;14.23;;;;;;;-147.27;100.00;65176.34;4918505;29;20040;-57
2021/03/01 00:17:12;;;;;;;28.67;14.47;;;;;;;-147.27;100.00;65176.34;4917723;29;20491;-57
2021/03/01 00:19:38;;;;;;;26.17;12.50;;;;;;;-147.27;100.00;65176.34;4901486;29;20148;-58
2021/03/01 00:22:03;;;;;;;27.33;13.13;;;;;;;-147.27;100.00;65176.34;4916260;29;20092;-58
2021/03/01 00:24:29;;;;;;;26.93;13.30;;;;;;;-147.27;100.00;65176.34;4918219;29;20043;-59
2021/03/01 00:26:54;;;;;;;30.93;14.20;;;;;;;-147.27;100.00;65176.34;4900240;29;20152;-58
2021/03/01 00:29:19;;;;;;;28.80;14.43;;;;;;;-147.27;100.00;65176.34;4917961;29;20037;-58
2021/03/01 00:31:45;;;;;;;29.77;15.23;;;;;;;-147.27;100.00;65176.34;4918172;29;20183;-58
2021/03/01 00:34:10;;;;;;;27.47;13.87;;;;;;;-147.27;100.00;65176.34;4917255;29;20281;-59
2021/03/01 00:36:36;;;;;;;28.03;14.67;;;;;;;-147.27;100.00;65176.34;4917892;29;20059;-59
2021/03/01 00:39:02;;;;;;;29.20;14.37;;;;;;;-147.27;100.00;65176.34;4917474;29;20497;-59
2021/03/01 00:41:27;;;;;;;31.02;13.90;;;;;;;-147.27;100.00;65176.34;4917738;29;20079;-59
2021/03/01 00:43:53;;;;;;;33.07;13.50;;;;;;;-147.27;100.00;65176.34;4916274;29;20044;-57
2021/03/01 00:46:18;;;;;;;27.27;12.73;;;;;;;-147.27;100.00;65176.34;4916663;29;20040;-57
2021/03/01 00:48:44;;;;;;;30.73;13.20;;;;;;;-147.27;100.00;65176.34;4917718;29;20075;-58
2021/03/01 00:51:09;;;;;;;30.20;13.67;;;;;;;-147.27;100.00;65176.34;4917091;29;20047;-59
2021/03/01 00:53:34;;;;;;;24.83;10.67;;;;;;;-147.27;100.00;65176.34;4916279;29;20111;-57
2021/03/01 00:56:00;;;;;;;32.30;14.13;;;;;;;-147.27;100.00;65176.34;4917417;29;20127;-58
2021/03/01 00:58:26;;;;;;;30.13;13.73;;;;;;;-147.27;100.00;65176.34;4916197;29;20060;-58
2021/03/01 01:00:52;;;;;;;26.30;13.20;;;;;;;-147.27;100.00;65176.34;4916588;29;20548;-58
2021/03/01 01:03:21;;;;;;;32.58;14.90;;;;;;;-147.27;100.00;65176.34;4916723;29;20079;-59
2021/03/01 01:06:01;;;;;;;27.90;14.30;;;;;;;-147.27;100.00;65176.34;4901993;29;20508;-57
2021/03/01 01:08:27;;;;;;;34.40;14.00;;;;;;;-147.27;100.00;65176.34;4916270;29;20121;-58
2021/03/01 01:10:53;;;;;;;30.97;14.00;;;;;;;-147.27;100.00;65176.34;4917587;29;20043;-58
2021/03/01 01:13:18;;;;;;;31.57;14.90;;;;;;;-147.27;100.00;65176.34;4915793;29;20068;-59
2021/03/01 01:15:44;;;;;;;33.83;14.80;;;;;;;-147.27;100.00;65176.34;4917553;29;20056;-59
2021/03/01 01:18:10;;;;;;;34.00;17.10;;;;;;;-147.27;100.00;65176.34;4915488;29;20036;-58
2021/03/01 01:20:35;;;;;;;36.38;16.10;;;;;;;-147.27;100.00;65176.34;4916014;29;20445;-58
2021/03/01 01:23:01;;;;;;;33.88;14.20;;;;;;;-147.27;100.00;65176.34;4899628;29;20051;-57
2021/03/01 01:25:26;;;;;;;33.50;14.43;;;;;;;-147.27;100.00;65176.34;4917042;29;20052;-58
2021/03/01 01:27:52;;;;;;;37.23;16.23;;;;;;;-147.27;100.00;65176.34;4917594;29;20041;-58
2021/03/01 01:30:24;;;;;;;34.73;15.10;;;;;;;-147.27;100.00;65176.34;4899738;29;20039;-58
2021/03/01 01:32:50;;;;;;;40.45;15.55;;;;;;;-147.27;100.00;65176.34;4916879;29;20139;-58
2021/03/01 01:35:18;;;;;;;38.15;16.15;;;;;;;-147.27;100.00;65176.34;4916496;29;20145;-59
2021/03/01 01:37:44;;;;;;;38.35;15.75;;;;;;;-147.27;100.00;65176.34;4916851;29;20040;-59
2021/03/01 01:40:16;;;;;;;39.53;18.03;;;;;;;-147.27;100.00;65176.34;4916332;29;20032;-56
2021/03/01 01:42:42;;;;;;;39.95;17.05;;;;;;;-147.27;100.00;65176.34;4916914;29;20310;-58
2021/03/01 01:45:13;;;;;;;36.33;16.50;;;;;;;-147.27;100.00;65176.34;4915001;29;20397;-59
2021/03/01 01:47:40;;;;;;;38.53;16.38;;;;;;;-147.27;100.00;65176.34;4916649;29;20148;-57
2021/03/01 01:50:07;;;;;;;42.38;16.48;;;;;;;-147.27;100.00;65176.34;4914869;29;20042;-59
2021/03/01 01:52:33;;;;;;;43.28;17.00;;;;;;;-147.27;100.00;65176.34;4916609;29;20111;-57
2021/03/01 01:54:59;;;;;;;46.03;16.42;;;;;;;-147.27;100.00;65176.34;4916622;29;20056;-58
2021/03/01 01:57:26;;;;;;;41.03;15.45;;;;;;;-147.27;100.00;65176.34;4916653;29;20499;-60
2021/03/01 01:59:51;;;;;;;46.83;17.73;;;;;;;-147.27;100.00;65176.34;4915271;29;20497;-58
2021/03/01 02:02:17;;;;;;;44.90;17.52;;;;;;;-147.27;100.00;65176.34;4915980;29;20087;-58
2021/03/01 02:04:46;;;;;;;48.07;19.67;;;;;;;-147.27;100.00;65176.34;4916218;29;20523;-58
2021/03/01 02:07:30;;;;;;;42.25;18.05;;;;;;;-147.27;100.00;65176.34;4914834;29;20130;-58
2021/03/01 02:10:05;;;;;;;47.83;18.92;;;;;;;-147.27;100.00;65176.34;4916770;29;20123;-57
2021/03/01 02:12:56;;;;;;;44.78;19.40;;;;;;;-147.27;100.00;65176.34;4915241;29;20043;-58
2021/03/01 02:15:27;;;;;;;46.10;18.95;;;;;;;-147.27;100.00;65176.34;4915646;29;20383;-59
2021/03/01 02:17:53;;;;;;;51.75;19.77;;;;;;;-147.27;100.00;65176.34;4916202;29;20044;-56
2021/03/01 02:20:18;;;;;;;48.70;18.87;;;;;;;-147.27;100.00;65176.34;4915759;29;20051;-57
2021/03/01 02:22:44;;;;;;;48.80;19.03;;;;;;;-147.27;100.00;65176.34;4916409;29;20122;-57
2021/03/01 02:25:13;;;;;;;41.53;16.97;;;;;;;-147.27;100.00;65176.34;4915852;29;20341;-58
2021/03/01 02:27:50;;;;;;;54.92;20.88;;;;;;;-147.27;100.00;65176.34;4916040;29;20044;-58
2021/03/01 02:30:23;;;;;;;49.70;19.08;;;;;;;-147.27;100.00;65176.34;4915905;29;20040;-58
2021/03/01 02:32:52;;;;;;;54.72;19.83;;;;;;;-147.27;100.00;65176.34;4916138;29;20064;-58
2021/03/01 02:35:19;;;;;;;50.50;18.95;;;;;;;-147.27;100.00;65176.34;4898697;29;20032;-58
2021/03/01 02:37:47;;;;;;;49.40;18.80;;;;;;;-147.27;100.00;65176.34;4915958;29;20137;-58
2021/03/01 02:40:16;;;;;;;43.28;19.08;;;;;;;-147.27;100.00;65176.34;4915257;29;20454;-58
2021/03/01 02:42:42;;;;;;;46.40;18.83;;;;;;;-147.27;100.00;65176.34;4898735;29;20044;-58
2021/03/01 02:45:08;;;;;;;46.28;17.58;;;;;;;-147.27;100.00;65176.34;4914091;29;20047;-58
2021/03/01 02:47:35;;;;;;;49.13;20.80;;;;;;;-147.27;100.00;65176.34;4915612;29;20128;-58
2021/03/01 02:50:01;;;;;;;;;;;;;;;-147.27;100.00;65176.34;4916112;29;20075;-58
2021/03/01 02:52:28;;;;;;;47.80;18.92;;;;;;;-147.27;100.00;65176.34;4914922;29;19915;-59
2021/03/01 02:54:54;;;;;;;41.85;18.58;;;;;;;-147.27;100.00;65176.34;4914117;29;20040;-58
2021/03/01 02:57:23;;;;;;;49.95;19.90;;;;;;;-147.27;100.00;65176.34;4915179;29;20042;-58
2021/03/01 02:59:53;;;;;;;50.58;19.23;;;;;;;-147.27;100.00;65176.34;4914084;29;20055;-58
2021/03/01 03:02:19;;;;;;;47.15;19.63;;;;;;;-147.27;100.00;65176.34;4897938;29;20120;-59
2021/03/01 03:04:47;;;;;;;48.67;19.90;;;;;;;-147.27;100.00;65176.34;4915513;29;20571;-59
2021/03/01 03:07:14;;;;;;;48.72;20.60;;;;;;;-147.27;100.00;65176.34;4913656;29;20123;-57
2021/03/01 03:09:44;;;;;;;50.25;19.98;;;;;;;-147.27;100.00;65176.34;4915249;29;20143;-58
2021/03/01 03:12:12;;;;;;;47.55;19.83;;;;;;;-147.27;100.00;65176.34;4913735;29;20032;-58
2021/03/01 03:14:39;;;;;;;49.33;20.25;;;;;;;-147.27;100.00;65176.34;4915410;29;20067;-58
2021/03/01 03:17:05;;;;;;;49.63;20.80;;;;;;;-147.27;100.00;65176.34;4914003;29;20044;-59
2021/03/01 03:19:31;;;;;;;54.88;20.38;;;;;;;-147.27;100.00;65176.34;4914470;29;20047;-58
2021/03/01 03:21:58;;;;;;;48.33;20.58;;;;;;;-147.27;100.00;65176.34;4920877;29;20040;-58
2021/03/01 03:24:23;;;;;;;47.45;18.85;;;;;;;-147.27;100.00;65176.34;4924718;29;20043;-58
2021/03/01 03:26:49;;;;;;;44.37;18.23;;;;;;;-147.27;100.00;65176.34;4923703;29;20048;-58
2021/03/01 03:29:14;;;;;;;56.23;19.90;;;;;;;-147.27;100.00;65176.34;4931154;29;20039;-59
2021/03/01 03:31:40;;;;;;;55.03;21.23;;;;;;;-147.27;100.00;65176.34;4933820;29;20032;-58
2021/03/01 03:34:07;;;;;;;43.43;19.47;;;;;;;-147.27;100.00;65176.34;4932387;29;20067;-58
2021/03/01 03:36:38;;;;;;;54.67;20.10;;;;;;;-147.27;100.00;65176.34;4933100;29;20146;-55
2021/03/01 03:39:10;;;;;;;42.72;19.15;;;;;;;-147.27;100.00;65176.34;4932232;29;20091;-56
2021/03/01 03:41:37;;;;;;;49.15;20.02;;;;;;;-147.27;100.00;65176.34;4925115;29;20436;-59
2021/03/01 03:44:06;;;;;;;49.58;20.13;;;;;;;-147.27;100.00;65176.34;4930767;29;20119;-58
2021/03/01 03:46:33;;;;;;;41.65;18.85;;;;;;;-147.27;100.00;65176.34;4921715;29;20477;-59
2021/03/01 03:48:59;;;;;;;43.15;19.48;;;;;;;-147.27;100.00;65176.34;4922474;29;20040;-57
2021/03/01 03:51:28;;;;;;;45.45;19.10;;;;;;;-147.27;100.00;65176.34;4913159;29;20036;-58
2021/03/01 03:53:59;;;;;;;42.85;17.52;;;;;;;-147.27;100.00;65176.34;4916181;29;20088;-59
2021/03/01 03:56:26;;;;;;;45.22;19.90;;;;;;;-147.27;100.00;65176.34;4915633;29;20123;-58
2021/03/01 03:59:00;;;;;;;41.67;17.65;;;;;;;-147.27;100.00;65176.34;4915706;29;20051;-59
2021/03/01 04:01:29;;;;;;;50.10;19.00;;;;;;;-147.27;100.00;65176.34;4914969;29;20036;-59
2021/03/01 04:04:01;;;;;;;40.90;18.80;;;;;;;-147.27;100.00;65176.34;4914370;29;20056;-58
2021/03/01 04:06:27;;;;;;;45.55;19.00;;;;;;;-147.27;100.00;65176.34;4914739;29;20036;-58
2021/03/01 04:08:53;;;;;;;50.92;19.10;;;;;;;-147.27;100.00;65176.34;4915236;29;20054;-58
2021/03/01 04:11:23;;;;;;;41.37;18.07;;;;;;;-147.27;100.00;65176.34;4914355;29;20126;-58
2021/03/01 04:13:53;;;;;;;44.60;18.15;;;;;;;-147.27;100.00;65176.34;4882533;29;20404;-58
2021/03/01 04:16:20;;;;;;;40.78;17.85;;;;;;;-147.27;100.00;65176.34;4913077;29;20044;-57
2021/03/01 04:18:48;;;;;;;42.70;18.92;;;;;;;-147.27;100.00;65176.34;4913448;29;20036;-58
2021/03/01 04:21:15;;;;;;;46.03;19.33;;;;;;;-147.27;100.00;65176.34;4914355;29;20048;-58
2021/03/01 04:23:43;;;;;;;50.40;19.92;;;;;;;-147.27;100.00;65176.34;4915139;29;20095;-59
2021/03/01 04:26:08;;;;;;;46.72;19.48;;;;;;;-147.27;100.00;65176.34;4913467;29;20068;-58
2021/03/01 04:28:35;;;;;;;43.03;18.63;;;;;;;-147.27;100.00;65176.34;4914081;29;20270;-58
2021/03/01 04:31:06;;;;;;;47.23;17.80;;;;;;;-147.27;100.00;65176.34;4897726;29;20059;-58
2021/03/01 04:33:34;;;;;;;45.00;19.42;;;;;;;-147.27;100.00;65176.34;4912676;29;20362;-58
2021/03/01 04:36:01;;;;;;;47.53;18.70;;;;;;;-147.27;100.00;65176.34;4914845;29;20044;-59
2021/03/01 04:38:26;;;;;;;39.22;18.88;;;;;;;-147.27;100.00;65176.34;4917004;29;20060;-59
2021/03/01 04:40:53;;;;;;;43.13;17.93;;;;;;;-147.27;100.00;65176.34;4918189;29;20072;-58
2021/03/01 04:43:23;;;;;;;42.00;18.05;;;;;;;-147.27;100.00;65176.34;4917378;29;20043;-57
2021/03/01 04:45:53;;;;;;;42.05;19.88;;;;;;;-147.27;100.00;65176.34;4916969;29;20449;-59
2021/03/01 04:48:21;;;;;;;34.58;16.60;;;;;;;-147.27;100.00;65176.34;4917638;29;20032;-57
2021/03/01 04:50:49;;;;;;;41.35;18.38;;;;;;;-147.27;100.00;65176.34;4918601;29;20087;-58
2021/03/01 04:53:15;;;;;;;42.67;18.42;;;;;;;-147.27;100.00;65176.34;4918311;29;20080;-59
2021/03/01 04:55:41;;;;;;;;;;;;;;;-147.27;100.00;65176.34;4901071;29;20131;-59
2021/03/01 04:58:08;;;;;;;44.95;19.88;;;;;;;-147.27;100.00;65176.34;4917899;29;20335;-59
2021/03/01 05:00:35;;;;;;;43.28;17.70;;;;;;;-147.27;100.00;65176.34;4885491;29;20040;-59
2021/03/01 05:03:03;;;;;;;42.25;18.35;;;;;;;-147.27;100.00;65176.34;4918531;29;20044;-58
2021/03/01 05:05:29;;;;;;;45.85;19.63;;;;;;;-147.27;100.00;65176.34;4916705;29;20044;-58
2021/03/01 05:07:58;;;;;;;38.03;18.33;;;;;;;-147.27;100.00;65176.34;4901440;29;20131;-59
2021/03/01 05:10:26;;;;;;;38.58;17.55;;;;;;;-147.27;100.00;65176.34;4917593;29;20119;-59
2021/03/01 05:12:52;;;;;;;43.00;16.60;;;;;;;-147.27;100.00;65176.34;4918411;29;20056;-59
2021/03/01 05:15:18;;;;;;;42.10;16.77;;;;;;;-147.27;100.00;65176.34;4918043;29;20067;-58
2021/03/01 05:17:45;;;;;;;41.83;17.88;;;;;;;-147.27;100.00;65176.34;4917650;29;20488;-59
2021/03/01 05:20:12;;;;;;;37.67;16.23;;;;;;;-147.27;100.00;65176.34;4918905;29;20358;-59
2021/03/01 05:22:37;;;;;;;36.90;16.47;;;;;;;-147.27;100.00;65176.34;4919661;29;20040;-57
2021/03/01 05:25:03;;;;;;;31.77;12.77;;;;;;;-147.27;100.00;65176.34;4918649;29;20290;-59
2021/03/01 05:27:32;;;;;;;42.05;16.85;;;;;;;-147.27;100.00;65176.34;4918170;29;20048;-61
2021/03/01 05:29:57;;;;;;;32.65;15.02;;;;;;;-147.27;100.00;65176.34;4917397;29;20048;-58
2021/03/01 05:32:23;;;;;;;33.45;15.00;;;;;;;-147.27;100.00;65176.34;4915423;29;20046;-58
2021/03/01 05:34:48;;;;;;;35.30;15.13;;;;;;;-147.27;100.00;65176.34;4917758;29;20544;-58
2021/03/01 05:37:14;;;;;;;41.33;17.03;;;;;;;-147.27;100.00;65176.34;4917970;29;20397;-58
2021/03/01 05:39:39;;;;;;;40.80;17.80;;;;;;;-147.27;100.00;65176.34;4916701;29;20457;-60
2021/03/01 05:42:06;;;;;;;37.30;17.80;;;;;;;-147.27;100.00;65176.34;4917853;29;20465;-59
2021/03/01 05:44:32;;;;;;;41.67;18.58;;;;;;;-147.27;100.00;65176.34;4899468;29;20110;-59
2021/03/01 05:47:00;;;;;;;38.22;16.67;;;;;;;-147.27;100.00;65176.34;4915939;29;20457;-58
2021/03/01 05:49:27;;;;;;;35.63;16.35;;;;;;;-147.27;100.00;65176.34;4915709;29;20072;-59
2021/03/01 05:51:56;;;;;;;;;;;;;;;-147.27;100.00;65176.34;4915809;29;20525;-58
2021/03/01 05:54:26;;;;;;;35.63;15.02;;;;;;;-147.27;100.00;65176.34;4946890;29;19915;-58
2021/03/01 05:56:52;;;;;;;41.25;17.55;;;;;;;-147.27;100.00;65176.34;4915420;29;20044;-58
2021/03/01 05:59:18;;;;;;;39.83;15.75;;;;;;;-147.27;100.00;65176.34;4916244;29;20520;-58
2021/03/01 06:01:44;;;;;;;38.10;15.35;;;;;;;-147.27;100.00;65176.34;4916033;29;20051;-59
2021/03/01 06:04:10;;;;;;;39.42;15.73;;;;;;;-147.27;100.00;65176.34;4914992;29;20041;-58
2021/03/01 06:06:37;;;;;;;34.88;17.08;;;;;;;-147.27;100.00;65176.34;4915625;29;20131;-58
2021/03/01 06:09:03;;;;;;;35.67;15.85;;;;;;;-147.27;100.00;65176.34;4914733;29;20040;-58
2021/03/01 06:11:28;;;;;;;38.67;17.48;;;;;;;-147.27;100.00;65176.34;4914982;29;20052;-58
2021/03/01 06:13:53;;;;;;;35.87;17.07;;;;;;;-147.27;100.00;65176.34;4916424;29;20051;-58
2021/03/01 06:16:20;;;;;;;42.95;17.95;;;;;;;-147.27;100.00;65176.34;4914658;29;20078;-57
2021/03/01 06:18:46;;;;;;;37.10;15.60;;;;;;;-147.27;100.00;65176.34;4915357;29;20208;-57
2021/03/01 06:21:14;;;;;;;39.35;13.90;;;;;;;-147.27;100.00;65176.34;4914542;29;20127;-58
2021/03/01 06:23:42;;;;;;;31.20;14.90;;;;;;;-147.27;100.00;65176.34;4915000;29;20470;-58
2021/03/01 06:26:32;;;;;;;35.17;16.02;;;;;;;-147.27;100.00;65176.34;4915894;29;20075;-57
2021/03/01 06:29:03;;;;;;;34.50;14.95;;;;;;;-147.27;100.00;65176.34;4915762;29;20464;-57
2021/03/01 06:31:48;;;;;;;38.97;16.17;;;;;;;-147.27;100.00;65176.34;4917479;29;20050;-57
2021/03/01 06:34:19;;;;;;;41.72;16.35;;;;;;;-147.27;100.00;65176.34;4914437;29;20100;-59
2021/03/01 06:36:57;;;;;;;39.50;17.98;;;;;;;-147.27;100.00;65176.34;4913902;29;20067;-58
2021/03/01 06:39:28;;;;;;;42.65;16.75;;;;;;;-147.27;100.00;65176.34;4915761;29;20467;-58
2021/03/01 06:41:54;;;;;;;36.50;16.35;;;;;;;-147.27;100.00;65176.34;4915347;29;20126;-58
2021/03/01 06:44:19;;;;;;;39.63;17.15;;;;;;;-147.27;100.00;65176.34;4915483;29;20040;-58
2021/03/01 06:46:50;;;;;;;39.97;16.50;;;;;;;-147.27;100.00;65176.34;4919511;29;20551;-58
2021/03/01 06:49:16;;;;;;;45.72;17.92;;;;;;;-147.27;100.00;65176.34;4920801;29;20280;-58
2021/03/01 06:51:42;;;;;;;42.58;16.83;;;;;;;-147.27;100.00;65176.34;4914765;29;20066;-59
2021/03/01 06:54:08;;;;;;;39.50;16.73;;;;;;;-147.27;100.00;65176.34;4914173;29;20032;-58
2021/03/01 06:56:40;;;;;;;41.95;16.63;;;;;;;-147.27;100.00;65176.34;4913180;29;20361;-58
2021/03/01 06:59:11;;;;;;;36.30;16.80;;;;;;;-147.27;100.00;65176.34;4915400;29;20083;-59
2021/03/01 07:02:03;;;;;;;34.22;15.73;;;;;;;-147.27;100.00;65176.34;4914863;29;20051;-57
2021/03/01 07:04:30;;;;;;;48.35;17.67;;;;;;;-147.27;100.00;65176.34;4912297;29;20052;-59
2021/03/01 07:06:58;;;;;;;40.10;17.42;;;;;;;-147.27;100.00;65176.34;4914871;29;20114;-58
2021/03/01 07:09:25;;;;;;;38.40;16.92;;;;;;;-147.27;100.00;65176.34;4914881;29;20064;-58
2021/03/01 07:11:51;;;;;;;39.13;17.08;;;;;;;-147.27;100.00;65176.34;4914350;29;20377;-58
2021/03/01 07:14:22;;;;;;;37.53;16.35;;;;;;;-147.27;100.00;65176.34;4915221;29;20511;-57
2021/03/01 07:16:50;;;;;;;43.13;16.55;;;;;;;-147.27;100.00;65176.34;4914387;29;20099;-58
2021/03/01 07:19:16;;;;;;;34.47;15.20;;;;;;;-147.27;100.00;65176.34;4915044;29;20119;-58
2021/03/01 07:21:43;;;;;;;;;;;;;;;-147.27;100.00;65176.34;4914803;29;20036;-58
2021/03/01 07:24:09;;;;;;;37.08;15.32;;;;;;;-147.27;100.00;65176.34;4914939;29;19999;-57
2021/03/01 07:26:35;;;;;;;39.70;15.20;;;;;;;-147.27;100.00;65176.34;4914279;29;20179;-58
2021/03/01 07:29:11;;;;;;;40.42;16.38;;;;;;;-147.27;100.00;65176.34;4915096;29;20465;-58
2021/03/01 07:31:40;;;;;;;40.85;14.50;;;;;;;-147.27;100.00;65176.34;4914424;29;20048;-58
2021/03/01 07:34:10;;;;;;;33.20;13.85;;;;;;;-147.27;100.00;65176.34;4914917;29;20119;-58
2021/03/01 07:36:36;;;;;;;40.15;16.40;;;;;;;-147.27;100.00;65176.34;4915750;29;20044;-58
2021/03/01 07:39:09;;;;;;;35.63;16.10;;;;;;;-147.27;100.00;65176.34;4916943;29;20032;-58
2021/03/01 07:41:35;;;;;;;41.30;15.05;;;;;;;-147.27;100.00;65176.34;4914318;29;20400;-58
2021/03/01 07:44:02;;;;;;;39.08;16.05;;;;;;;-147.27;100.00;65176.34;4915039;29;21446;-57
2021/03/01 07:46:28;;;;;;;;;;;;;;;-147.27;100.00;65176.34;4905686;29;20122;-58
2021/03/01 07:48:55;;;;;;;31.58;14.20;;;;;;;-147.27;100.00;65176.34;4926850;29;20319;-58
2021/03/01 07:51:48;;;;;;;36.35;15.65;;;;;;;-147.27;100.00;65176.34;4932711;29;20090;-59
2021/03/01 07:54:16;;;;;;;37.88;15.23;;;;;;;-147.27;100.00;65176.34;4933755;29;20040;-58
2021/03/01 07:56:43;;;;;;;39.95;16.73;;;;;;;-147.27;100.00;65176.34;4930388;29;20086;-59
2021/03/01 07:59:10;;;;;;;36.05;15.68;;;;;;;-147.27;100.00;65176.34;4924917;29;20056;-58
2021/03/01 08:01:37;;;;;;;34.33;15.02;;;;;;;-147.27;100.00;65176.34;4917719;29;20080;-58
2021/03/01 08:04:03;;;;;;;;;;;;;;;-147.27;100.00;65176.34;4922051;29;20040;-59
2021/03/01 08:06:55;;;;;;;39.83;16.00;;;;;;;-147.27;100.00;65176.34;4932068;29;19915;-59
2021/03/01 08:09:43;;;;;;;36.05;14.85;;;;;;;-147.27;100.00;65176.34;4933328;29;20047;-58
2021/03/01 08:12:10;;;;;;;36.67;15.48;;;;;;;-147.27;100.00;65176.34;4933593;29;20098;-59
2021/03/01 08:14:51;;;;;;;38.00;16.60;;;;;;;-147.27;100.00;65176.34;4938010;29;20074;-57
2021/03/01 08:17:41;;;;;;;35.38;15.50;;;;;;;-147.27;100.00;65176.34;4936335;29;20427;-58
2021/03/01 08:20:12;;;;;;;41.22;16.75;;;;;;;-147.27;100.00;65176.34;4935782;29;20040;-58
2021/03/01 08:23:03;;;;;;;36.17;15.48;;;;;;;-147.27;100.00;65176.34;4937044;29;20050;-58
2021/03/01 08:25:44;;;;;;;38.15;15.93;;;;;;;-147.27;100.00;65176.34;4928113;29;20153;-58
2021/03/01 08:28:22;;;;;;;36.13;15.82;;;;;;;-147.27;100.00;65176.34;4916449;29;20477;-59
2021/03/01 08:30:55;;;;;;;36.08;15.80;;;;;;;-147.27;100.00;65176.34;4921446;29;20072;-58
2021/03/01 08:33:28;;;;;;;35.65;14.77;;;;;;;-147.27;100.00;65176.34;4926026;29;20047;-59
2021/03/01 08:36:13;;;;;;;37.88;15.93;;;;;;;-147.27;100.00;65176.34;4924949;29;20040;-58
2021/03/01 08:38:53;;;;;;;32.70;13.63;;;;;;;-147.27;100.00;65176.34;4918813;29;20095;-57
2021/03/01 08:41:39;;;;;;;35.47;13.77;;;;;;;-147.27;100.00;65176.34;4913933;29;20051;-58
2021/03/01 08:44:25;;;;;;;35.30;14.65;;;;;;;-147.27;100.00;65176.34;4936999;29;20047;-60
2021/03/01 08:47:01;;;;;;;41.60;16.30;;;;;;;-147.27;100.00;65176.34;4934945;29;20398;-59
2021/03/01 08:49:26;;;;;;;40.63;17.75;;;;;;;-147.27;100.00;65176.34;4939384;29;20439;-58
2021/03/01 08:51:51;;;;;;;34.00;15.73;;;;;;;-147.27;100.00;65176.34;4935900;29;20114;-59
2021/03/01 08:54:31;;;;;;;46.23;18.50;;;;;;;-147.27;100.00;65176.34;4936525;29;20389;-58
2021/03/01 08:57:07;;;;;;;43.90;18.45;;;;;;;-147.27;100.00;65176.34;4934010;29;20042;-57
2021/03/01 08:59:33;;;;;;;46.67;18.92;;;;;;;-147.27;100.00;65176.34;4934767;29;20044;-59
2021/03/01 09:01:59;;;;;;;43.03;17.60;;;;;;;-147.27;100.00;65176.34;4934159;29;20043;-58
2021/03/01 09:04:24;;;;;;;43.47;17.73;;;;;;;-147.27;100.00;65176.34;4936373;29;20278;-58
2021/03/01 09:06:50;;;;;;;44.73;18.13;;;;;;;-147.27;100.00;65176.34;4935149;29;20314;-59
2021/03/01 09:09:15;;;;;;;40.20;17.23;;;;;;;-147.27;100.00;65176.34;4935523;29;20126;-57
2021/03/01 09:11:41;;;;;;;47.03;17.60;;;;;;;-147.27;100.00;65176.34;4935217;29;20051;-59
2021/03/01 09:14:07;;;;;;;39.72;18.42;;;;;;;-147.27;100.00;65176.34;4934857;29;20409;-59
2021/03/01 09:16:36;;;;;;;44.00;18.30;;;;;;;-147.27;100.00;65176.34;4935835;29;20036;-59
2021/03/01 09:19:08;;;;;;;44.03;17.55;;;;;;;-147.27;100.00;65176.34;4930524;29;20092;-58
2021/03/01 09:21:37;;;;;;;43.85;16.42;;;;;;;-147.27;100.00;65176.34;4917199;29;20064;-58
2021/03/01 09:24:03;;;;;;;37.30;16.17;;;;;;;-147.27;100.00;65176.34;4915151;29;20044;-58
2021/03/01 09:26:40;;;;;;;37.50;15.65;;;;;;;-147.27;100.00;65176.34;4916686;29;20070;-59
2021/03/01 09:29:11;;;;;;;35.92;17.02;;;;;;;-147.27;100.00;65176.34;4914686;29;20048;-58
2021/03/01 09:31:43;;;;;;;38.63;16.17;;;;;;;-147.27;100.00;65176.34;4915509;29;20060;-59
2021/03/01 09:34:10;;;;;;;47.80;19.10;;;;;;;-147.27;100.00;65176.34;4916759;29;20032;-59
2021/03/01 09:36:36;;;;;;;45.77;16.40;;;;;;;-147.27;100.00;65176.34;4916598;29;20059;-60
2021/03/01 09:39:04;;;;;;;39.28;16.17;;;;;;;-147.27;100.00;65176.34;4916035;29;20287;-59
2021/03/01 09:41:49;;;;;;;44.67;16.85;;;;;;;-147.27;100.00;65176.34;4922242;29;20484;-59
2021/03/01 09:44:20;;;;;;;34.13;15.20;;;;;;;-147.27;100.00;65176.34;4920766;29;20082;-59
2021/03/01 09:46:49;;;;;;;38.75;16.15;;;;;;;-147.27;100.00;65176.34;4921714;29;20043;-58
2021/03/01 09:49:15;;;;;;;36.85;15.68;;;;;;;-147.27;100.00;65176.34;4916728;29;20044;-58
2021/03/01 09:51:41;;;;;;;39.78;16.38;;;;;;;-147.27;100.00;65176.34;4916572;29;20107;-60
2021/03/01 09:54:08;;;;;;;37.67;16.80;;;;;;;-147.27;100.00;65176.34;4898725;29;20044;-58
2021/03/01 09:56:44;;;;;;;39.05;17.98;;;;;;;-147.27;100.00;65176.34;4916305;29;20480;-57
2021/03/01 09:59:11;;;;;;;42.15;16.95;;;;;;;-147.27;100.00;65176.34;4915588;29;20064;-59
2021/03/01 10:01:36;;;;;;;36.90;15.40;;;;;;;-147.27;100.00;65176.34;4915314;29;20120;-59
2021/03/01 10:04:03;;;;;;;44.50;16.57;;;;;;;-147.27;100.00;65176.34;4915722;29;20472;-58
2021/03/01 10:06:42;;;;;;;39.15;17.42;;;;;;;-147.27;100.00;65176.34;4914885;29;20294;-58
2021/03/01 10:09:09;;;;;;;47.30;18.08;;;;;;;-147.27;100.00;65176.34;4914406;29;20461;-58
2021/03/01 10:11:35;;;;;;;47.10;18.40;;;;;;;-147.27;100.00;65176.34;4915921;29;20060;-58
2021/03/01 10:14:06;;;;;;;37.30;15.35;;;;;;;-147.27;100.00;65176.34;4898621;29;20477;-58
2021/03/01 10:16:34;;;;;;;34.58;15.77;;;;;;;-147.27;100.00;65176.34;4916045;29;20048;-59
2021/03/01 10:19:13;;;;;;;42.05;17.63;;;;;;;-147.27;100.00;65176.34;4913643;29;20186;-58
2021/03/01 10:21:40;;;;;;;39.55;16.20;;;;;;;-147.27;100.00;65176.34;4916037;29;20047;-58
2021/03/01 10:24:07;;;;;;;37.17;15.32;;;;;;;-147.27;100.00;65176.34;4915784;29;20040;-59
2021/03/01 10:26:48;;;;;;;35.97;14.60;;;;;;;-147.27;100.00;65176.34;4915466;29;20115;-59
2021/03/01 10:29:14;;;;;;;31.83;12.93;;;;;;;-147.27;100.00;65176.34;4915535;29;20050;-59
2021/03/01 10:31:39;;;;;;;30.77;14.27;;;;;;;-147.27;100.00;65176.34;4915576;29;20056;-58
2021/03/01 10:34:14;;;;;;;28.52;12.88;;;;;;;-147.27;100.00;65176.34;4918235;29;20051;-59
2021/03/01 10:36:39;;;;;;;28.00;12.65;;;;;;;-147.27;100.00;65176.34;4914144;29;20091;-58
2021/03/01 10:39:18;;;;;;;37.80;13.73;;;;;;;-147.27;100.00;65176.34;4914794;29;20114;-59
2021/03/01 10:41:46;;;;;;;33.28;14.20;;;;;;;-147.27;100.00;65176.34;4914700;29;20040;-59
2021/03/01 10:44:13;;;;;;;38.67;16.10;;;;;;;-147.27;100.00;65176.34;4918671;29;20098;-58
2021/03/01 10:46:47;;;;;;;35.13;14.82;;;;;;;-147.27;100.00;65176.34;4927620;29;20063;-59
2021/03/01 10:49:20;;;;;;;44.13;18.70;;;;;;;-147.27;100.00;65176.34;4931095;29;20377;-59
2021/03/01 10:51:47;;;;;;;44.55;18.02;;;;;;;-147.27;100.00;65176.34;4932969;29;20039;-58
2021/03/01 10:54:13;;;;;;;40.35;16.55;;;;;;;-147.27;100.00;65176.34;4933679;29;20464;-58
2021/03/01 10:56:39;;;;;;;45.78;17.10;;;;;;;-147.27;100.00;65176.34;4932554;29;20067;-59
2021/03/01 10:59:05;;;;;;;38.60;16.42;;;;;;;-147.27;100.00;65176.34;4922515;29;20478;-59
2021/03/01 11:01:40;;;;;;;43.45;17.42;;;;;;;-147.27;100.00;65176.34;4915215;29;20036;-57